createdAt,value
2023-02-24T00:01:54.483Z,8.00
2023-02-24T00:04:21.556Z,8.00
2023-02-24T00:06:49.123Z,8.00
2023-02-24T00:09:26.297Z,7.90
2023-02-24T00:12:10.814Z,7.90
2023-02-24T00:14:39.827Z,7.90
2023-02-24T00:17:08.473Z,7.90
2023-02-24T00:19:36.642Z,7.90
2023-02-24T00:22:05.933Z,7.80
2023-02-24T00:24:33.419Z,7.80
2023-02-24T00:27:02.227Z,7.80
2023-02-24T00:29:30.376Z,7.80
2023-02-24T00:32:00.341Z,7.80
2023-02-24T00:34:30.132Z,7.80
2023-02-24T00:36:58.240Z,7.80
2023-02-24T00:39:33.790Z,7.80
2023-02-24T00:42:05.070Z,7.70
2023-02-24T00:44:55.298Z,7.70
2023-02-24T00:47:22.610Z,7.70
2023-02-24T00:49:50.402Z,7.70
2023-02-24T00:52:20.444Z,7.60
2023-02-24T00:54:49.875Z,7.60
2023-02-24T00:57:18.571Z,7.60
2023-02-24T00:59:48.574Z,7.50
2023-02-24T01:02:16.014Z,7.50
2023-02-24T01:04:44.777Z,7.50
2023-02-24T01:07:13.858Z,7.50
2023-02-24T01:09:41.912Z,7.50
2023-02-24T01:12:29.585Z,7.50
2023-02-24T01:14:56.604Z,7.50
2023-02-24T01:17:23.592Z,7.50
2023-02-24T01:19:50.717Z,7.40
2023-02-24T01:22:20.273Z,7.40
2023-02-24T01:24:47.643Z,7.40
2023-02-24T01:27:18.950Z,7.40
2023-02-24T01:29:47.405Z,7.40
2023-02-24T01:32:17.859Z,7.40
2023-02-24T01:34:46.023Z,7.30
2023-02-24T01:37:16.517Z,7.40
2023-02-24T01:39:47.700Z,7.30
2023-02-24T01:42:17.158Z,7.30
2023-02-24T01:44:47.986Z,7.20
2023-02-24T01:47:20.672Z,7.20
2023-02-24T01:49:51.520Z,7.20
2023-02-24T01:52:32.399Z,7.20
2023-02-24T01:55:14.619Z,7.20
2023-02-24T01:57:42.655Z,7.20
2023-02-24T02:00:12.412Z,7.20
2023-02-24T02:02:48.346Z,7.20
2023-02-24T02:05:15.261Z,7.10
2023-02-24T02:07:43.680Z,7.10
2023-02-24T02:10:11.921Z,7.10
2023-02-24T02:12:46.198Z,7.10
2023-02-24T02:15:16.842Z,7.00
2023-02-24T02:17:59.948Z,7.00
2023-02-24T02:20:47.962Z,7.10
2023-02-24T02:23:54.242Z,7.10
2023-02-24T02:26:36.345Z,7.10
2023-02-24T02:29:25.509Z,7.00
2023-02-24T02:31:55.423Z,7.10
2023-02-24T02:34:40.758Z,7.10
2023-02-24T02:37:14.990Z,7.10
2023-02-24T02:39:59.596Z,7.10
2023-02-24T02:42:44.474Z,7.10
2023-02-24T02:45:33.175Z,7.20
2023-02-24T02:48:06.897Z,7.20
2023-02-24T02:50:41.232Z,7.20
2023-02-24T02:53:15.903Z,7.30
2023-02-24T02:55:53.522Z,7.40
2023-02-24T02:58:26.402Z,7.40
2023-02-24T03:01:04.523Z,7.50
2023-02-24T03:03:45.800Z,7.60
2023-02-24T03:06:19.265Z,7.70
2023-02-24T03:08:59.401Z,7.80
2023-02-24T03:11:27.708Z,7.80
2023-02-24T03:13:57.724Z,7.90
2023-02-24T03:16:28.165Z,8.00
2023-02-24T03:19:06.196Z,8.10
2023-02-24T03:21:45.368Z,8.10
2023-02-24T03:24:15.747Z,8.10
2023-02-24T03:26:58.416Z,8.20
2023-02-24T03:29:38.099Z,8.20
2023-02-24T03:32:09.363Z,8.30
2023-02-24T03:34:56.941Z,8.40
2023-02-24T03:37:29.965Z,8.40
2023-02-24T03:39:59.753Z,8.50
2023-02-24T03:42:32.766Z,8.50
2023-02-24T03:45:01.886Z,8.50
2023-02-24T03:47:30.358Z,8.60
2023-02-24T03:49:57.971Z,8.60
2023-02-24T03:52:49.050Z,8.60
2023-02-24T03:55:40.484Z,8.60
2023-02-24T03:58:26.702Z,8.70
2023-02-24T04:01:36.568Z,8.70
2023-02-24T04:04:10.573Z,8.80
2023-02-24T04:07:06.001Z,8.80
2023-02-24T04:09:50.358Z,8.80
2023-02-24T04:12:52.213Z,8.90
2023-02-24T04:15:31.497Z,8.90
2023-02-24T04:18:07.881Z,9.00
2023-02-24T04:20:40.223Z,9.00
2023-02-24T04:23:16.692Z,9.10
2023-02-24T04:25:49.153Z,9.00
2023-02-24T04:28:21.268Z,9.10
2023-02-24T04:30:53.301Z,9.10
2023-02-24T04:33:21.104Z,9.10
2023-02-24T04:35:50.591Z,9.10
2023-02-24T04:38:19.660Z,9.10
2023-02-24T04:40:50.026Z,9.20
2023-02-24T04:43:17.579Z,9.20
2023-02-24T04:45:44.831Z,9.10
2023-02-24T04:48:13.109Z,9.10
2023-02-24T04:50:43.466Z,9.20
2023-02-24T04:53:16.167Z,9.20
2023-02-24T04:55:49.753Z,9.20
2023-02-24T04:58:21.514Z,9.20
2023-02-24T05:00:52.827Z,9.20
2023-02-24T05:03:22.518Z,9.20
2023-02-24T05:05:58.267Z,9.20
2023-02-24T05:08:26.496Z,9.20
2023-02-24T05:10:54.010Z,9.20
2023-02-24T05:13:30.905Z,9.20
2023-02-24T05:16:08.813Z,9.30
2023-02-24T05:18:37.349Z,9.20
2023-02-24T05:21:29.426Z,9.20
2023-02-24T05:23:59.179Z,9.20
2023-02-24T05:26:27.111Z,9.20
2023-02-24T05:28:56.726Z,9.20
2023-02-24T05:31:27.010Z,9.30
2023-02-24T05:33:57.863Z,9.30
2023-02-24T05:36:27.710Z,9.30
2023-02-24T05:39:00.296Z,9.40
2023-02-24T05:41:35.991Z,9.40
2023-02-24T05:44:08.656Z,9.40
2023-02-24T05:46:38.620Z,9.40
2023-02-24T05:49:11.949Z,9.30
2023-02-24T05:51:43.454Z,9.30
2023-02-24T05:54:13.433Z,9.30
2023-02-24T05:56:44.564Z,9.30
2023-02-24T05:59:13.102Z,9.30
2023-02-24T06:01:42.217Z,9.20
2023-02-24T06:04:10.256Z,9.30
2023-02-24T06:06:41.961Z,9.30
2023-02-24T06:09:13.405Z,9.30
2023-02-24T06:11:42.302Z,9.30
2023-02-24T06:14:10.837Z,9.20
2023-02-24T06:16:40.342Z,9.30
2023-02-24T06:19:09.924Z,9.30
2023-02-24T06:21:41.232Z,9.30
2023-02-24T06:24:18.713Z,9.30
2023-02-24T06:26:46.592Z,9.30
2023-02-24T06:29:17.755Z,9.30
2023-02-24T06:31:45.254Z,9.30
2023-02-24T06:34:14.056Z,9.30
2023-02-24T06:36:43.090Z,9.30
2023-02-24T06:39:13.601Z,9.40
2023-02-24T06:41:42.569Z,9.40
2023-02-24T06:44:09.795Z,9.40
2023-02-24T06:46:37.443Z,9.40
2023-02-24T06:49:04.548Z,9.40
2023-02-24T06:51:31.952Z,9.40
2023-02-24T06:53:59.756Z,9.40
2023-02-24T06:56:27.868Z,9.40
2023-02-24T06:58:56.520Z,9.40
2023-02-24T07:01:26.762Z,9.40
2023-02-24T07:04:07.990Z,9.40
2023-02-24T07:06:38.353Z,9.40
2023-02-24T07:09:08.769Z,9.40
2023-02-24T07:11:37.040Z,9.40
2023-02-24T07:14:05.974Z,9.50
2023-02-24T07:16:34.740Z,9.50
2023-02-24T07:19:11.478Z,9.50
2023-02-24T07:21:40.185Z,9.50
2023-02-24T07:24:08.928Z,9.60
2023-02-24T07:26:42.134Z,9.60
2023-02-24T07:29:12.213Z,9.70
2023-02-24T07:31:40.097Z,9.70
2023-02-24T07:34:07.662Z,9.70
2023-02-24T07:36:53.219Z,9.70
2023-02-24T07:39:33.247Z,9.70
2023-02-24T07:42:41.598Z,9.70
2023-02-24T07:45:16.832Z,9.80
2023-02-24T07:52:19.483Z,9.80
2023-02-24T07:54:58.462Z,9.90
2023-02-24T07:58:09.729Z,9.90
2023-02-24T08:01:04.534Z,9.90
2023-02-24T08:04:30.168Z,9.90
2023-02-24T08:07:34.885Z,10.00
2023-02-24T08:10:16.273Z,10.00
2023-02-24T08:12:47.729Z,10.00
2023-02-24T08:15:18.097Z,10.00
2023-02-24T08:17:47.874Z,10.10
2023-02-24T08:20:15.635Z,10.10
2023-02-24T08:22:47.300Z,10.10
2023-02-24T08:25:38.956Z,10.10
2023-02-24T08:28:12.131Z,10.20
2023-02-24T08:30:46.689Z,10.30
2023-02-24T08:33:19.682Z,10.40
2023-02-24T08:35:57.478Z,10.40
2023-02-24T08:38:27.981Z,10.40
2023-02-24T08:40:58.776Z,10.50
2023-02-24T08:43:35.282Z,10.50
2023-02-24T08:46:16.012Z,10.50
2023-02-24T08:48:47.419Z,10.60
2023-02-24T08:51:30.486Z,10.60
2023-02-24T08:53:59.479Z,10.70
2023-02-24T08:56:34.549Z,10.90
2023-02-24T08:59:07.035Z,10.90
2023-02-24T09:01:40.529Z,11.00
2023-02-24T09:04:12.934Z,11.10
2023-02-24T09:06:44.211Z,11.20
2023-02-24T09:09:23.050Z,11.30
2023-02-24T09:11:56.203Z,11.40
2023-02-24T09:14:38.598Z,11.50
2023-02-24T09:17:11.524Z,11.60
2023-02-24T09:19:52.294Z,11.70
2023-02-24T09:22:57.461Z,11.80
2023-02-24T09:25:40.851Z,12.00
2023-02-24T09:28:17.070Z,12.10
2023-02-24T09:31:17.077Z,12.30
2023-02-24T09:33:51.085Z,12.60
2023-02-24T09:36:30.246Z,12.80
2023-02-24T09:38:59.981Z,12.90
2023-02-24T09:41:56.667Z,12.90
2023-02-24T09:44:33.691Z,12.90
2023-02-24T09:47:09.049Z,12.90
2023-02-24T09:49:50.700Z,12.90
2023-02-24T09:52:18.938Z,12.90
2023-02-24T09:55:08.041Z,12.80
2023-02-24T09:58:09.918Z,12.90
2023-02-24T10:00:44.717Z,12.90
2023-02-24T10:03:20.717Z,12.90
2023-02-24T10:06:12.383Z,12.90
2023-02-24T10:08:44.866Z,12.80
2023-02-24T10:11:14.371Z,13.00
2023-02-24T10:14:03.421Z,13.10
2023-02-24T10:16:48.253Z,13.10
2023-02-24T10:19:37.736Z,13.00
2023-02-24T10:22:27.714Z,12.90
2023-02-24T10:25:36.251Z,12.90
2023-02-24T10:28:36.827Z,12.80
2023-02-24T10:31:24.812Z,12.80
2023-02-24T10:34:07.808Z,12.70
2023-02-24T10:36:35.969Z,12.80
2023-02-24T10:39:25.814Z,12.80
2023-02-24T10:41:58.618Z,12.80
2023-02-24T10:44:36.256Z,12.90
2023-02-24T10:47:12.748Z,13.00
2023-02-24T10:49:57.152Z,13.00
2023-02-24T10:52:45.964Z,13.00
2023-02-24T10:55:53.518Z,13.00
2023-02-24T10:58:38.148Z,13.20
2023-02-24T11:01:20.922Z,13.30
2023-02-24T11:04:01.345Z,13.30
2023-02-24T11:06:52.470Z,13.40
2023-02-24T11:09:28.283Z,13.50
2023-02-24T11:12:18.451Z,13.50
2023-02-24T11:15:17.217Z,13.50
2023-02-24T11:18:14.926Z,13.60
2023-02-24T11:21:12.419Z,13.80
2023-02-24T11:24:05.741Z,13.80
2023-02-24T11:26:51.106Z,13.80
2023-02-24T11:30:16.846Z,13.90
2023-02-24T11:33:32.875Z,13.90
2023-02-24T11:36:39.113Z,14.00
2023-02-24T11:40:10.408Z,14.00
2023-02-24T11:43:32.641Z,14.00
2023-02-24T11:49:33.035Z,14.10
2023-02-24T11:52:24.317Z,14.30
2023-02-24T11:55:09.101Z,14.50
2023-02-24T11:58:04.280Z,14.70
2023-02-24T12:01:23.972Z,14.70
2023-02-24T12:04:52.492Z,14.70
2023-02-24T12:07:38.821Z,14.70
2023-02-24T12:11:01.891Z,14.70
2023-02-24T12:13:58.789Z,14.70
2023-02-24T12:16:50.012Z,14.60
2023-02-24T12:19:31.740Z,14.50
2023-02-24T12:22:11.413Z,14.60
2023-02-24T12:24:40.284Z,14.60
2023-02-24T12:27:58.940Z,14.60
2023-02-24T12:31:01.917Z,14.70
2023-02-24T12:33:43.923Z,14.80
2023-02-24T12:36:23.905Z,15.00
2023-02-24T12:39:15.209Z,15.00
2023-02-24T12:41:55.386Z,15.10
2023-02-24T12:44:36.961Z,15.20
2023-02-24T12:47:07.692Z,15.40
2023-02-24T12:49:51.794Z,15.50
2023-02-24T12:52:41.960Z,15.60
2023-02-24T12:55:34.971Z,15.70
2023-02-24T12:58:20.955Z,15.80
2023-02-24T13:01:00.585Z,15.70
2023-02-24T13:03:49.687Z,15.60
2023-02-24T13:06:50.762Z,15.50
2023-02-24T13:09:39.073Z,15.50
2023-02-24T13:12:41.112Z,15.40
2023-02-24T13:15:27.355Z,15.30
2023-02-24T13:17:58.043Z,15.20
2023-02-24T13:20:35.147Z,15.10
2023-02-24T13:23:04.909Z,15.10
2023-02-24T13:25:37.264Z,15.10
2023-02-24T13:28:07.250Z,15.00
2023-02-24T13:30:34.247Z,15.00
2023-02-24T13:33:18.793Z,15.00
2023-02-24T13:35:47.924Z,15.00
2023-02-24T13:38:29.365Z,15.10
2023-02-24T13:41:09.546Z,15.20
2023-02-24T13:43:36.630Z,15.20
2023-02-24T13:46:19.156Z,15.20
2023-02-24T13:48:55.013Z,15.20
2023-02-24T13:51:22.370Z,15.20
2023-02-24T13:54:27.173Z,15.10
2023-02-24T13:57:22.756Z,15.00
2023-02-24T13:59:52.481Z,15.00
2023-02-24T14:02:28.084Z,14.90
2023-02-24T14:04:57.824Z,15.00
2023-02-24T14:07:29.465Z,15.10
2023-02-24T14:10:25.141Z,15.20
2023-02-24T14:13:04.859Z,15.40
2023-02-24T14:15:33.518Z,15.50
2023-02-24T14:18:05.788Z,15.50
2023-02-24T14:20:34.753Z,15.50
2023-02-24T14:23:02.447Z,15.40
2023-02-24T14:25:34.995Z,15.40
2023-02-24T14:28:02.248Z,15.30
2023-02-24T14:30:33.630Z,15.30
2023-02-24T14:33:01.669Z,15.30
2023-02-24T14:35:36.943Z,15.30
2023-02-24T14:38:07.092Z,15.40
2023-02-24T14:40:34.031Z,15.40
2023-02-24T14:43:04.227Z,15.50
2023-02-24T14:45:34.584Z,15.60
2023-02-24T14:48:02.356Z,15.80
2023-02-24T14:50:38.430Z,15.80
2023-02-24T14:53:14.446Z,15.90
2023-02-24T14:55:46.942Z,15.90
2023-02-24T14:58:24.002Z,15.80
2023-02-24T15:00:59.133Z,15.80
2023-02-24T15:03:46.146Z,15.70
2023-02-24T15:06:24.981Z,15.60
2023-02-24T15:09:05.066Z,15.60
2023-02-24T15:11:33.007Z,15.50
2023-02-24T15:14:18.323Z,15.40
2023-02-24T15:16:48.565Z,15.50
2023-02-24T15:19:39.076Z,15.40
2023-02-24T15:22:33.287Z,15.30
2023-02-24T15:25:28.080Z,15.20
2023-02-24T15:28:00.479Z,15.00
2023-02-24T15:30:33.366Z,14.90
2023-02-24T15:33:06.547Z,14.80
2023-02-24T15:35:37.719Z,14.70
2023-02-24T15:38:05.068Z,14.60
2023-02-24T15:40:32.638Z,14.50
2023-02-24T15:43:11.849Z,14.40
2023-02-24T15:45:39.827Z,14.30
2023-02-24T15:48:22.041Z,14.30
2023-02-24T15:50:50.399Z,14.30
2023-02-24T15:53:17.526Z,14.30
2023-02-24T15:55:45.270Z,14.30
2023-02-24T15:58:23.272Z,14.20
2023-02-24T16:00:54.272Z,14.20
2023-02-24T16:03:21.389Z,14.20
2023-02-24T16:05:48.392Z,14.30
2023-02-24T16:08:19.330Z,14.20
2023-02-24T16:10:47.256Z,14.20
2023-02-24T16:13:21.513Z,14.20
2023-02-24T16:15:49.203Z,14.10
2023-02-24T16:18:25.291Z,14.10
2023-02-24T16:20:56.686Z,14.00
2023-02-24T16:23:27.041Z,14.00
2023-02-24T16:25:59.279Z,13.90
2023-02-24T16:28:26.745Z,13.90
2023-02-24T16:30:54.067Z,13.80
2023-02-24T16:33:23.701Z,13.80
2023-02-24T16:35:53.451Z,13.80
2023-02-24T16:38:22.040Z,13.70
2023-02-24T16:40:49.905Z,13.60
2023-02-24T16:43:17.245Z,13.60
2023-02-24T16:45:45.551Z,13.50
2023-02-24T16:48:21.459Z,13.40
2023-02-24T16:50:48.789Z,13.30
2023-02-24T16:53:22.778Z,13.20
2023-02-24T16:55:50.578Z,13.10
2023-02-24T16:58:19.223Z,13.10
2023-02-24T17:00:49.044Z,13.00
2023-02-24T17:03:23.268Z,13.00
2023-02-24T17:05:51.468Z,12.90
2023-02-24T17:08:19.256Z,12.90
2023-02-24T17:10:46.585Z,12.90
2023-02-24T17:13:16.071Z,12.90
2023-02-24T17:15:43.080Z,12.90
2023-02-24T17:18:10.505Z,12.90
2023-02-24T17:20:39.485Z,12.80
2023-02-24T17:23:06.784Z,12.90
2023-02-24T17:25:33.809Z,12.80
2023-02-24T17:28:00.764Z,12.80
2023-02-24T17:30:30.971Z,12.80
2023-02-24T17:32:58.077Z,12.80
2023-02-24T17:35:25.183Z,12.80
2023-02-24T17:37:52.122Z,12.80
2023-02-24T17:40:20.116Z,12.80
2023-02-24T17:42:47.065Z,12.80
2023-02-24T17:45:14.585Z,12.70
2023-02-24T17:47:42.573Z,12.70
2023-02-24T17:50:11.885Z,12.70
2023-02-24T17:52:39.106Z,12.70
2023-02-24T17:55:07.295Z,12.70
2023-02-24T17:57:35.307Z,12.70
2023-02-24T18:00:03.438Z,12.60
2023-02-24T18:02:39.601Z,12.60
2023-02-24T18:05:07.014Z,12.60
2023-02-24T18:07:33.951Z,12.50
2023-02-24T18:10:00.895Z,12.50
2023-02-24T18:12:28.376Z,12.50
2023-02-24T18:15:07.250Z,12.50
2023-02-24T18:17:35.834Z,12.50
2023-02-24T18:20:03.433Z,12.40
2023-02-24T18:22:30.366Z,12.40
2023-02-24T18:24:57.622Z,12.40
2023-02-24T18:27:24.598Z,12.30
2023-02-24T18:29:51.582Z,12.30
2023-02-24T18:32:18.687Z,12.30
2023-02-24T18:34:45.892Z,12.20
2023-02-24T18:37:12.928Z,12.20
2023-02-24T18:39:39.886Z,12.20
2023-02-24T18:42:06.811Z,12.20
2023-02-24T18:44:33.831Z,12.20
2023-02-24T18:47:00.890Z,12.20
2023-02-24T18:49:27.893Z,12.20
2023-02-24T18:51:54.785Z,12.20
2023-02-24T18:54:21.892Z,12.20
2023-02-24T18:56:49.020Z,12.30
2023-02-24T18:59:16.141Z,12.30
2023-02-24T19:01:43.241Z,12.30
2023-02-24T19:04:13.367Z,12.30
2023-02-24T19:06:45.411Z,12.30
2023-02-24T19:09:12.505Z,12.30
2023-02-24T19:11:40.927Z,12.20
2023-02-24T19:14:11.014Z,12.20
2023-02-24T19:16:38.784Z,12.20
2023-02-24T19:19:05.872Z,12.20
2023-02-24T19:21:34.719Z,12.10
2023-02-24T19:24:04.053Z,12.10
2023-02-24T19:26:31.066Z,12.10
2023-02-24T19:28:58.991Z,12.10
2023-02-24T19:31:28.098Z,12.10
2023-02-24T19:33:56.520Z,12.10
2023-02-24T19:36:24.857Z,12.10
2023-02-24T19:38:52.414Z,12.00
2023-02-24T19:41:19.679Z,12.00
2023-02-24T19:43:46.830Z,12.00
2023-02-24T19:46:16.607Z,12.00
2023-02-24T19:48:43.733Z,12.00
2023-02-24T19:51:20.378Z,12.00
2023-02-24T19:53:47.830Z,11.90
2023-02-24T19:56:14.930Z,11.90
2023-02-24T19:58:41.942Z,12.00
2023-02-24T20:01:13.822Z,12.00
2023-02-24T20:03:42.334Z,12.00
2023-02-24T20:06:20.013Z,11.90
2023-02-24T20:08:48.551Z,11.90
2023-02-24T20:11:15.778Z,11.90
2023-02-24T20:13:42.678Z,11.90
2023-02-24T20:16:12.739Z,11.90
2023-02-24T20:18:40.763Z,11.80
2023-02-24T20:21:08.486Z,11.80
2023-02-24T20:23:35.703Z,11.80
2023-02-24T20:26:02.618Z,11.70
2023-02-24T20:28:30.257Z,11.70
2023-02-24T20:30:59.246Z,11.70
2023-02-24T20:33:26.907Z,11.70
2023-02-24T20:35:55.001Z,11.60
2023-02-24T20:38:22.294Z,11.60
2023-02-24T20:41:00.529Z,11.50
2023-02-24T20:43:27.959Z,11.50
2023-02-24T20:45:56.663Z,11.50
2023-02-24T20:48:24.321Z,11.40
2023-02-24T20:50:51.377Z,11.40
2023-02-24T20:53:18.803Z,11.40
2023-02-24T20:55:45.820Z,11.30
2023-02-24T20:58:13.136Z,11.30
2023-02-24T21:00:40.634Z,11.30
2023-02-24T21:03:12.346Z,11.30
2023-02-24T21:05:40.215Z,11.30
2023-02-24T21:08:07.380Z,11.30
2023-02-24T21:10:34.948Z,11.30
2023-02-24T21:13:01.993Z,11.20
2023-02-24T21:15:28.960Z,11.30
2023-02-24T21:17:55.942Z,11.20
2023-02-24T21:20:22.967Z,11.20
2023-02-24T21:22:49.938Z,11.10
2023-02-24T21:25:17.443Z,11.10
2023-02-24T21:27:44.723Z,11.00
2023-02-24T21:30:12.151Z,11.00
2023-02-24T21:32:43.557Z,10.90
2023-02-24T21:35:10.814Z,10.90
2023-02-24T21:37:37.919Z,10.80
2023-02-24T21:40:11.180Z,10.80
2023-02-24T21:42:44.285Z,10.80
2023-02-24T21:45:12.043Z,10.70
2023-02-24T21:47:39.961Z,10.70
2023-02-24T21:50:08.302Z,10.70
2023-02-24T21:52:35.507Z,10.60
2023-02-24T21:55:02.664Z,10.60
2023-02-24T21:57:30.879Z,10.50
2023-02-24T21:59:57.809Z,10.50
2023-02-24T22:02:25.615Z,10.50
2023-02-24T22:04:52.866Z,10.50
2023-02-24T22:07:19.865Z,10.40
2023-02-24T22:09:49.365Z,10.40
2023-02-24T22:12:16.330Z,10.40
2023-02-24T22:14:43.493Z,10.30
2023-02-24T22:17:10.759Z,10.30
2023-02-24T22:19:37.820Z,10.20
2023-02-24T22:22:04.847Z,10.20
2023-02-24T22:24:31.851Z,10.30
2023-02-24T22:26:59.067Z,10.20
2023-02-24T22:29:26.095Z,10.20
2023-02-24T22:31:56.309Z,10.20
2023-02-24T22:34:23.530Z,10.20
2023-02-24T22:36:51.612Z,10.20
2023-02-24T22:39:18.627Z,10.20
2023-02-24T22:41:46.841Z,10.20
2023-02-24T22:44:14.424Z,10.20
2023-02-24T22:46:41.563Z,10.10
2023-02-24T22:49:08.543Z,10.10
2023-02-24T22:51:35.488Z,10.20
2023-02-24T22:54:02.940Z,10.10
2023-02-24T22:56:31.564Z,10.10
2023-02-24T22:58:59.346Z,10.10
2023-02-24T23:01:33.019Z,10.10
2023-02-24T23:04:02.009Z,10.00
2023-02-24T23:06:30.171Z,10.00
2023-02-24T23:08:59.166Z,10.00
2023-02-24T23:11:29.617Z,10.00
2023-02-24T23:13:58.920Z,10.00
2023-02-24T23:16:29.467Z,9.90
2023-02-24T23:19:04.359Z,9.80
2023-02-24T23:21:40.651Z,9.70
2023-02-24T23:24:10.987Z,9.60
2023-02-24T23:26:51.436Z,9.60
2023-02-24T23:29:19.731Z,9.70
2023-02-24T23:31:48.076Z,9.70
2023-02-24T23:34:15.563Z,9.60
2023-02-24T23:36:45.980Z,9.50
2023-02-24T23:39:15.215Z,9.50
2023-02-24T23:41:42.454Z,9.50
2023-02-24T23:44:09.678Z,9.50
2023-02-24T23:46:37.628Z,9.60
2023-02-24T23:49:05.713Z,9.60
2023-02-24T23:51:46.998Z,9.60
2023-02-24T23:54:15.652Z,9.60
2023-02-24T23:56:42.647Z,9.60
2023-02-24T23:59:09.898Z,9.60
